www.kiriwi.de
Wetterdaten: aktuell Dienstag, 01.09.2026 03:39
Datum Zeit Temperatur Temp.Boden Luftfeuchte Luftdruck Regen Wind Richtung Richtung Sonnenschein UV Index Solar Windchill Windboen
01.09.2026 03:39 15,8 °C 18,6 °C 85 % 1015,2 hPa 0,0 l/m² 9,7 km/h (2 Bft) SW 235 ° 0 min 0,0 UV-I 0 W/m² 14,1 °C 13,0 km/h (3 Bft)
01.09.2026 02:40 16,3 °C 18,8 °C 83 % 1014,8 hPa 0,0 l/m² 11,9 km/h (2 Bft) S-SW 202 ° 0 min 0,0 UV-I 0 W/m² 13,8 °C 24,1 km/h (4 Bft)
01.09.2026 01:42 16,2 °C 18,7 °C 85 % 1014,3 hPa 0,0 l/m² 9,0 km/h (2 Bft) S-SW 211 ° 0 min 0,0 UV-I 0 W/m² 14,9 °C 15,1 km/h (3 Bft)
01.09.2026 00:43 16,0 °C 18,9 °C 85 % 1014,0 hPa 0,0 l/m² 6,5 km/h (2 Bft) S-SW 198 ° 0 min 0,0 UV-I 0 W/m² 16,0 °C 14,4 km/h (3 Bft)
31.08.2026 23:45 16,0 °C 18,9 °C 85 % 1013,5 hPa 0,5 l/m² 3,2 km/h (1 Bft) S-SW 197 ° 0 min 0,0 UV-I 0 W/m² 16,0 °C 12,6 km/h (3 Bft)
31.08.2026 22:46 16,3 °C 18,6 °C 82 % 1012,9 hPa 0,1 l/m² 14,8 km/h (3 Bft) S-SW 206 ° 0 min 0,0 UV-I 0 W/m² 12,8 °C 17,3 km/h (3 Bft)
31.08.2026 21:48 16,6 °C 18,7 °C 78 % 1012,3 hPa 0,0 l/m² 14,8 km/h (3 Bft) SW 214 ° 0 min 0,0 UV-I 0 W/m² 13,2 °C 18,7 km/h (3 Bft)
31.08.2026 20:49 17,1 °C 18,8 °C 76 % 1012,1 hPa 0,0 l/m² 17,6 km/h (3 Bft) S-SW 205 ° 0 min 0,0 UV-I 0 W/m² 13,0 °C 19,8 km/h (3 Bft)
31.08.2026 19:51 17,7 °C 19,0 °C 71 % 1011,0 hPa 0,0 l/m² 14,0 km/h (3 Bft) S-SW 201 ° 8 min 0,0 UV-I 12 W/m² 14,8 °C 28,8 km/h (4 Bft)
31.08.2026 18:52 18,8 °C 19,0 °C 70 % 1010,5 hPa 0,0 l/m² 8,3 km/h (2 Bft) S 178 ° 10 min 1,0 UV-I 181 W/m² 18,0 °C 29,9 km/h (5 Bft)
31.08.2026 17:54 18,9 °C 18,7 °C 70 % 1009,8 hPa 0,1 l/m² 19,4 km/h (3 Bft) S-SW 209 ° 0 min 1,0 UV-I 141 W/m² 14,9 °C 29,2 km/h (5 Bft)
31.08.2026 16:55 18,9 °C 18,3 °C 71 % 1009,9 hPa 0,0 l/m² 25,9 km/h (4 Bft) SW 216 ° 8 min 0,0 UV-I 34 W/m² 13,8 °C 28,4 km/h (4 Bft)
31.08.2026 15:57 21,3 °C 18,4 °C 58 % 1009,3 hPa 0,0 l/m² 12,6 km/h (3 Bft) SW 217 ° 22 min 4,0 UV-I 526 W/m² 19,4 °C 30,6 km/h (5 Bft)
31.08.2026 14:59 22,4 °C 18,5 °C 53 % 1008,8 hPa 0,0 l/m² 10,1 km/h (2 Bft) S 191 ° 22 min 2,0 UV-I 227 W/m² 21,3 °C 25,2 km/h (4 Bft)
31.08.2026 14:00 22,8 °C 18,4 °C 54 % 1008,8 hPa 0,0 l/m² 12,2 km/h (2 Bft) S-SW 199 ° 42 min 5,0 UV-I 549 W/m² 21,2 °C 29,9 km/h (5 Bft)
31.08.2026 13:02 22,0 °C 18,5 °C 59 % 1009,0 hPa 0,0 l/m² 15,8 km/h (3 Bft) S-SW 213 ° 40 min 7,0 UV-I 848 W/m² 19,5 °C 30,2 km/h (5 Bft)
31.08.2026 12:03 18,6 °C 18,5 °C 79 % 1009,9 hPa 0,6 l/m² 7,2 km/h (2 Bft) S-SW 201 ° 32 min 3,0 UV-I 364 W/m² 18,2 °C 14,8 km/h (3 Bft)
31.08.2026 11:05 21,4 °C 18,5 °C 62 % 1009,7 hPa 0,0 l/m² 9,4 km/h (2 Bft) W 271 ° 32 min 2,0 UV-I 250 W/m² 20,4 °C 23,8 km/h (4 Bft)
31.08.2026 10:06 20,4 °C 18,5 °C 69 % 1009,8 hPa 0,0 l/m² 10,1 km/h (2 Bft) S-SW 202 ° 56 min 5,0 UV-I 544 W/m² 19,1 °C 25,2 km/h (4 Bft)
31.08.2026 09:08 18,8 °C 18,5 °C 73 % 1009,9 hPa 0,0 l/m² 14,0 km/h (3 Bft) S-SO 155 ° 2 min 2,0 UV-I 255 W/m² 16,1 °C 22,7 km/h (4 Bft)
31.08.2026 08:09 18,5 °C 18,5 °C 71 % 1009,5 hPa 0,0 l/m² 11,1 km/h (2 Bft) SW 220 ° 0 min 0,0 UV-I 81 W/m² 16,6 °C 17,6 km/h (3 Bft)
31.08.2026 07:11 18,7 °C 18,4 °C 68 % 1008,9 hPa 0,0 l/m² 9,4 km/h (2 Bft) S 180 ° 0 min 0,0 UV-I 32 W/m² 17,4 °C 11,5 km/h (2 Bft)
31.08.2026 06:12 18,1 °C 18,6 °C 71 % 1008,9 hPa 0,0 l/m² 4,7 km/h (1 Bft) S-SO 158 ° 0 min 0,0 UV-I 0 W/m² 18,1 °C 14,0 km/h (3 Bft)
31.08.2026 05:14 18,3 °C 18,8 °C 70 % 1009,1 hPa 0,0 l/m² 5,4 km/h (1 Bft) S-SO 154 ° 0 min 0,0 UV-I 0 W/m² 18,3 °C 7,2 km/h (2 Bft)
31.08.2026 04:15 16,6 °C 18,8 °C 80 % 1009,9 hPa 0,0 l/m² 4,3 km/h (1 Bft) S 177 ° 0 min 0,0 UV-I 0 W/m² 16,6 °C 8,3 km/h (2 Bft)
31.08.2026 04:01 15,5 °C 19,1 °C 85 % 1009,8 hPa 0,0 l/m² 2,2 km/h (1 Bft) S-SO 164 ° 0 min 0,0 UV-I 0 W/m² 15,5 °C 3,6 km/h (1 Bft)
_ Min-Zeit 04:01 13:18 14:22 14:42 - 04:03 - - - - - 00:19 04:48
Minimum _ 15,5 °C 0,0 °C 48 % 1008,5 hPa - 0,0 km/h (0 Bft) - - - - - 11,7 °C 0,0 km/h (0 Bft)
_ Max-Zeit 14:22 04:01 23:23 03:37 11:49 14:16 - - 09:08 14:30 13:26 14:12 14:26
Maximum _ 23,8 °C 19,1 °C 87 % 1015,3 hPa 0,5 l/m² 29,2 km/h
SW (5 Bft)
- - 2 min 9,0 UV-I 933 W/m² 23,2 °C 44,6 km/h
S-SW (6 Bft)
Durchschnitt _ 18,4 °C 18,6 °C 72 % 1010,7 hPa #1,3 l/m² 11,1 km/h (2 Bft) S-SW - #0 min. 0,0 UV-I 0 W/m² 16,7 °C 20,3 km/h (4 Bft)
www.kiriwi.de